sensor_id;sensor_type;location;lat;lon;timestamp;pressure;altitude;pressure_sealevel;temperature;humidity
43298;BME280;28892;55.640;37.532;2023-05-02T00:00:35;99216.41;;;5.49;59.03
43298;BME280;28892;55.640;37.532;2023-05-02T00:03:05;99215.25;;;5.52;58.70
43298;BME280;28892;55.640;37.532;2023-05-02T00:05:33;99220.38;;;5.53;58.85
43298;BME280;28892;55.640;37.532;2023-05-02T00:08:04;99214.44;;;5.51;58.09
43298;BME280;28892;55.640;37.532;2023-05-02T00:10:34;99216.84;;;5.44;57.48
43298;BME280;28892;55.640;37.532;2023-05-02T00:13:03;99235.09;;;5.46;58.28
43298;BME280;28892;55.640;37.532;2023-05-02T00:15:32;99232.78;;;5.43;58.31
43298;BME280;28892;55.640;37.532;2023-05-02T00:17:58;99243.16;;;5.44;58.67
43298;BME280;28892;55.640;37.532;2023-05-02T00:20:32;99237.00;;;5.54;59.40
43298;BME280;28892;55.640;37.532;2023-05-02T00:22:58;99241.34;;;5.45;58.69
43298;BME280;28892;55.640;37.532;2023-05-02T00:25:26;99253.38;;;5.48;59.15
43298;BME280;28892;55.640;37.532;2023-05-02T00:27:53;99248.88;;;5.40;59.01
43298;BME280;28892;55.640;37.532;2023-05-02T00:30:19;99242.94;;;5.38;59.36
43298;BME280;28892;55.640;37.532;2023-05-02T00:32:47;99238.38;;;5.30;59.87
43298;BME280;28892;55.640;37.532;2023-05-02T00:35:18;99248.53;;;5.25;58.86
43298;BME280;28892;55.640;37.532;2023-05-02T00:37:44;99251.72;;;5.18;59.23
43298;BME280;28892;55.640;37.532;2023-05-02T00:40:13;99259.50;;;5.20;58.79
43298;BME280;28892;55.640;37.532;2023-05-02T00:42:39;99260.31;;;5.21;58.95
43298;BME280;28892;55.640;37.532;2023-05-02T00:45:05;99266.69;;;5.18;58.94
43298;BME280;28892;55.640;37.532;2023-05-02T00:47:34;99259.53;;;5.10;59.13
43298;BME280;28892;55.640;37.532;2023-05-02T00:50:01;99266.84;;;5.16;58.77
43298;BME280;28892;55.640;37.532;2023-05-02T00:52:56;99283.31;;;5.47;58.60
43298;BME280;28892;55.640;37.532;2023-05-02T00:55:26;99273.47;;;5.21;58.51
43298;BME280;28892;55.640;37.532;2023-05-02T00:58:24;99285.06;;;5.28;58.93
43298;BME280;28892;55.640;37.532;2023-05-02T01:01:05;99290.50;;;5.16;59.13
43298;BME280;28892;55.640;37.532;2023-05-02T01:16:01;99297.56;;;5.16;58.78
43298;BME280;28892;55.640;37.532;2023-05-02T01:18:58;99308.47;;;5.21;58.89
43298;BME280;28892;55.640;37.532;2023-05-02T01:21:27;99295.66;;;5.08;58.90
43298;BME280;28892;55.640;37.532;2023-05-02T01:27:46;99309.84;;;5.25;58.50
43298;BME280;28892;55.640;37.532;2023-05-02T01:30:29;99315.56;;;5.21;58.77
43298;BME280;28892;55.640;37.532;2023-05-02T01:33:28;99313.75;;;5.21;58.53
43298;BME280;28892;55.640;37.532;2023-05-02T01:36:17;99314.38;;;5.33;58.47
43298;BME280;28892;55.640;37.532;2023-05-02T01:38:49;99317.63;;;5.17;58.28
43298;BME280;28892;55.640;37.532;2023-05-02T01:41:30;99315.38;;;5.22;58.15
43298;BME280;28892;55.640;37.532;2023-05-02T01:44:10;99328.16;;;5.17;58.12
43298;BME280;28892;55.640;37.532;2023-05-02T01:46:39;99315.56;;;5.11;58.32
43298;BME280;28892;55.640;37.532;2023-05-02T01:49:35;99330.38;;;5.12;58.08
43298;BME280;28892;55.640;37.532;2023-05-02T01:52:07;99321.50;;;5.13;58.09
43298;BME280;28892;55.640;37.532;2023-05-02T01:55:22;99338.00;;;5.15;58.10
43298;BME280;28892;55.640;37.532;2023-05-02T01:57:52;99345.59;;;5.18;58.04
43298;BME280;28892;55.640;37.532;2023-05-02T02:00:24;99348.91;;;5.20;58.06
43298;BME280;28892;55.640;37.532;2023-05-02T02:02:52;99343.13;;;5.07;58.60
43298;BME280;28892;55.640;37.532;2023-05-02T02:05:21;99346.16;;;5.12;58.67
43298;BME280;28892;55.640;37.532;2023-05-02T02:07:50;99358.06;;;5.16;58.25
43298;BME280;28892;55.640;37.532;2023-05-02T02:10:17;99347.00;;;5.12;58.15
43298;BME280;28892;55.640;37.532;2023-05-02T02:12:51;99350.31;;;5.14;57.84
43298;BME280;28892;55.640;37.532;2023-05-02T02:15:46;99363.16;;;5.17;58.12
43298;BME280;28892;55.640;37.532;2023-05-02T02:18:43;99379.91;;;5.26;58.23
43298;BME280;28892;55.640;37.532;2023-05-02T02:21:18;99366.47;;;5.20;57.87
43298;BME280;28892;55.640;37.532;2023-05-02T02:23:50;99370.50;;;5.14;58.01
43298;BME280;28892;55.640;37.532;2023-05-02T02:26:51;99372.94;;;5.25;57.66
43298;BME280;28892;55.640;37.532;2023-05-02T02:29:27;99376.13;;;5.29;57.70
43298;BME280;28892;55.640;37.532;2023-05-02T02:32:08;99381.81;;;5.24;57.83
43298;BME280;28892;55.640;37.532;2023-05-02T02:34:41;99392.75;;;5.29;57.68
43298;BME280;28892;55.640;37.532;2023-05-02T02:37:18;99401.56;;;5.38;57.31
43298;BME280;28892;55.640;37.532;2023-05-02T02:40:04;99396.72;;;5.43;57.67
43298;BME280;28892;55.640;37.532;2023-05-02T02:42:51;99398.66;;;5.41;58.15
43298;BME280;28892;55.640;37.532;2023-05-02T02:45:47;99402.47;;;5.57;57.50
43298;BME280;28892;55.640;37.532;2023-05-02T02:48:33;99395.06;;;5.42;57.30
43298;BME280;28892;55.640;37.532;2023-05-02T02:55:14;99419.34;;;5.64;57.31
43298;BME280;28892;55.640;37.532;2023-05-02T03:00:54;99414.72;;;5.48;57.61
43298;BME280;28892;55.640;37.532;2023-05-02T03:03:26;99415.66;;;5.47;57.30
43298;BME280;28892;55.640;37.532;2023-05-02T03:05:54;99419.25;;;5.46;57.55
43298;BME280;28892;55.640;37.532;2023-05-02T03:08:40;99419.38;;;5.54;57.62
43298;BME280;28892;55.640;37.532;2023-05-02T03:11:09;99415.94;;;5.54;57.42
43298;BME280;28892;55.640;37.532;2023-05-02T03:13:47;99410.75;;;5.62;57.28
43298;BME280;28892;55.640;37.532;2023-05-02T03:16:36;99423.03;;;5.81;57.32
43298;BME280;28892;55.640;37.532;2023-05-02T03:19:05;99414.28;;;5.81;57.47
43298;BME280;28892;55.640;37.532;2023-05-02T03:21:32;99413.09;;;5.93;56.55
43298;BME280;28892;55.640;37.532;2023-05-02T03:24:06;99417.78;;;5.99;56.03
43298;BME280;28892;55.640;37.532;2023-05-02T03:26:32;99428.00;;;6.12;56.10
43298;BME280;28892;55.640;37.532;2023-05-02T03:29:02;99424.00;;;6.08;56.51
43298;BME280;28892;55.640;37.532;2023-05-02T03:31:34;99427.72;;;6.15;56.49
43298;BME280;28892;55.640;37.532;2023-05-02T03:34:00;99440.97;;;6.24;55.53
43298;BME280;28892;55.640;37.532;2023-05-02T03:36:26;99444.50;;;6.33;55.75
43298;BME280;28892;55.640;37.532;2023-05-02T03:38:54;99449.72;;;6.42;55.32
43298;BME280;28892;55.640;37.532;2023-05-02T03:41:21;99436.47;;;6.52;54.77
43298;BME280;28892;55.640;37.532;2023-05-02T03:43:55;99456.50;;;6.63;54.55
43298;BME280;28892;55.640;37.532;2023-05-02T03:46:24;99451.75;;;6.67;54.23
43298;BME280;28892;55.640;37.532;2023-05-02T03:48:53;99446.47;;;6.67;54.07
43298;BME280;28892;55.640;37.532;2023-05-02T03:51:19;99472.16;;;6.83;54.37
43298;BME280;28892;55.640;37.532;2023-05-02T03:54:06;99460.50;;;6.85;53.45
43298;BME280;28892;55.640;37.532;2023-05-02T03:56:42;99464.47;;;6.90;53.85
43298;BME280;28892;55.640;37.532;2023-05-02T03:59:20;99461.63;;;6.83;53.77
43298;BME280;28892;55.640;37.532;2023-05-02T04:01:50;99474.25;;;6.97;54.17
43298;BME280;28892;55.640;37.532;2023-05-02T04:04:19;99475.00;;;7.08;53.81
43298;BME280;28892;55.640;37.532;2023-05-02T04:06:55;99473.09;;;7.18;53.49
43298;BME280;28892;55.640;37.532;2023-05-02T04:09:21;99471.31;;;7.19;53.91
43298;BME280;28892;55.640;37.532;2023-05-02T04:12:18;99473.31;;;7.25;52.88
43298;BME280;28892;55.640;37.532;2023-05-02T04:14:49;99484.25;;;7.30;53.05
43298;BME280;28892;55.640;37.532;2023-05-02T04:17:19;99475.34;;;7.31;52.53
43298;BME280;28892;55.640;37.532;2023-05-02T04:19:48;99484.13;;;7.40;52.33
43298;BME280;28892;55.640;37.532;2023-05-02T04:22:18;99482.59;;;7.55;52.05
43298;BME280;28892;55.640;37.532;2023-05-02T04:24:49;99475.75;;;7.71;51.76
43298;BME280;28892;55.640;37.532;2023-05-02T04:27:16;99491.13;;;7.76;51.50
43298;BME280;28892;55.640;37.532;2023-05-02T04:29:48;99490.09;;;8.03;51.49
43298;BME280;28892;55.640;37.532;2023-05-02T04:32:17;99486.53;;;8.21;51.18
43298;BME280;28892;55.640;37.532;2023-05-02T04:38:38;99503.53;;;8.70;50.63
43298;BME280;28892;55.640;37.532;2023-05-02T04:42:07;99502.09;;;9.00;48.95
43298;BME280;28892;55.640;37.532;2023-05-02T04:45:18;99514.47;;;9.33;47.79
43298;BME280;28892;55.640;37.532;2023-05-02T04:48:44;99519.09;;;9.47;47.18
43298;BME280;28892;55.640;37.532;2023-05-02T04:55:02;99528.84;;;10.20;47.24
43298;BME280;28892;55.640;37.532;2023-05-02T04:57:44;99512.00;;;10.04;45.96
43298;BME280;28892;55.640;37.532;2023-05-02T05:00:14;99519.72;;;10.23;45.79
43298;BME280;28892;55.640;37.532;2023-05-02T05:03:29;99528.50;;;10.63;45.14
43298;BME280;28892;55.640;37.532;2023-05-02T05:06:22;99520.34;;;10.41;44.92
43298;BME280;28892;55.640;37.532;2023-05-02T05:09:03;99534.94;;;10.69;44.36
43298;BME280;28892;55.640;37.532;2023-05-02T05:12:02;99527.88;;;10.84;44.79
43298;BME280;28892;55.640;37.532;2023-05-02T05:14:34;99542.44;;;11.12;43.59
43298;BME280;28892;55.640;37.532;2023-05-02T05:17:10;99528.00;;;11.14;44.58
43298;BME280;28892;55.640;37.532;2023-05-02T05:24:27;99540.56;;;11.74;44.01
43298;BME280;28892;55.640;37.532;2023-05-02T05:27:48;99511.50;;;11.72;43.59
43298;BME280;28892;55.640;37.532;2023-05-02T05:30:29;99526.44;;;11.58;41.21
43298;BME280;28892;55.640;37.532;2023-05-02T05:33:03;99529.38;;;11.64;40.42
43298;BME280;28892;55.640;37.532;2023-05-02T05:39:28;99538.94;;;12.33;40.50
43298;BME280;28892;55.640;37.532;2023-05-02T05:42:00;99531.16;;;12.17;38.10
43298;BME280;28892;55.640;37.532;2023-05-02T05:45:11;99536.16;;;12.56;40.32
43298;BME280;28892;55.640;37.532;2023-05-02T05:47:55;99532.28;;;12.59;38.81
43298;BME280;28892;55.640;37.532;2023-05-02T05:54:19;99526.78;;;12.82;39.26
43298;BME280;28892;55.640;37.532;2023-05-02T05:56:49;99523.63;;;12.94;37.29
43298;BME280;28892;55.640;37.532;2023-05-02T05:59:52;99530.25;;;12.98;37.72
43298;BME280;28892;55.640;37.532;2023-05-02T06:14:56;99543.75;;;13.68;35.75
43298;BME280;28892;55.640;37.532;2023-05-02T06:17:56;99540.56;;;14.15;35.35
43298;BME280;28892;55.640;37.532;2023-05-02T06:20:51;99532.50;;;14.08;37.00
43298;BME280;28892;55.640;37.532;2023-05-02T06:30:59;99549.31;;;14.51;32.41
43298;BME280;28892;55.640;37.532;2023-05-02T06:33:37;99531.94;;;13.85;34.44
43298;BME280;28892;55.640;37.532;2023-05-02T06:36:32;99541.94;;;13.76;33.49
43298;BME280;28892;55.640;37.532;2023-05-02T06:39:03;99543.97;;;13.67;33.68
43298;BME280;28892;55.640;37.532;2023-05-02T06:41:33;99548.47;;;13.23;34.70
43298;BME280;28892;55.640;37.532;2023-05-02T06:44:08;99538.91;;;13.50;34.55
43298;BME280;28892;55.640;37.532;2023-05-02T06:46:41;99551.84;;;13.53;32.97
43298;BME280;28892;55.640;37.532;2023-05-02T06:49:07;99545.63;;;14.10;33.49
43298;BME280;28892;55.640;37.532;2023-05-02T06:51:35;99540.22;;;14.38;33.90
43298;BME280;28892;55.640;37.532;2023-05-02T06:54:05;99540.19;;;14.80;33.06
43298;BME280;28892;55.640;37.532;2023-05-02T06:56:46;99552.66;;;14.66;33.32
43298;BME280;28892;55.640;37.532;2023-05-02T07:03:48;99563.38;;;14.73;34.20
43298;BME280;28892;55.640;37.532;2023-05-02T07:06:29;99554.69;;;13.80;33.41
43298;BME280;28892;55.640;37.532;2023-05-02T07:09:01;99551.38;;;13.72;32.06
43298;BME280;28892;55.640;37.532;2023-05-02T07:11:39;99557.72;;;13.05;33.28
43298;BME280;28892;55.640;37.532;2023-05-02T07:14:07;99550.50;;;13.43;33.15
43298;BME280;28892;55.640;37.532;2023-05-02T07:16:48;99547.75;;;14.21;32.68
43298;BME280;28892;55.640;37.532;2023-05-02T07:19:44;99558.50;;;14.00;31.10
43298;BME280;28892;55.640;37.532;2023-05-02T07:22:15;99555.63;;;14.36;32.28
43298;BME280;28892;55.640;37.532;2023-05-02T07:24:41;99555.22;;;14.39;30.54
43298;BME280;28892;55.640;37.532;2023-05-02T07:27:26;99562.47;;;14.52;31.16
43298;BME280;28892;55.640;37.532;2023-05-02T07:30:59;99561.44;;;14.53;31.89
43298;BME280;28892;55.640;37.532;2023-05-02T07:38:18;99562.47;;;15.55;30.72
43298;BME280;28892;55.640;37.532;2023-05-02T07:41:25;99545.16;;;15.71;31.88
43298;BME280;28892;55.640;37.532;2023-05-02T07:44:18;99550.06;;;15.88;30.13
43298;BME280;28892;55.640;37.532;2023-05-02T07:46:57;99549.47;;;15.79;29.27
43298;BME280;28892;55.640;37.532;2023-05-02T07:51:06;99555.66;;;15.66;29.41
43298;BME280;28892;55.640;37.532;2023-05-02T07:54:21;99540.81;;;14.89;30.45
43298;BME280;28892;55.640;37.532;2023-05-02T08:01:04;99555.41;;;16.01;30.45
43298;BME280;28892;55.640;37.532;2023-05-02T08:04:17;99550.22;;;16.20;30.99
43298;BME280;28892;55.640;37.532;2023-05-02T08:10:40;99543.72;;;17.26;27.88
43298;BME280;28892;55.640;37.532;2023-05-02T08:13:06;99527.47;;;17.21;27.56
43298;BME280;28892;55.640;37.532;2023-05-02T08:15:40;99526.75;;;17.32;28.91
43298;BME280;28892;55.640;37.532;2023-05-02T08:22:02;99532.34;;;17.56;27.67
43298;BME280;28892;55.640;37.532;2023-05-02T08:24:58;99529.38;;;17.83;27.18
43298;BME280;28892;55.640;37.532;2023-05-02T08:27:32;99527.50;;;17.65;26.89
43298;BME280;28892;55.640;37.532;2023-05-02T08:30:25;99529.84;;;17.80;27.28
43298;BME280;28892;55.640;37.532;2023-05-02T08:34:17;99526.25;;;18.42;27.16
43298;BME280;28892;55.640;37.532;2023-05-02T08:37:00;99518.78;;;19.05;27.96
43298;BME280;28892;55.640;37.532;2023-05-02T08:40:16;99534.84;;;19.48;26.85
43298;BME280;28892;55.640;37.532;2023-05-02T08:42:46;99531.94;;;19.61;26.79
43298;BME280;28892;55.640;37.532;2023-05-02T08:45:58;99532.03;;;20.14;25.77
43298;BME280;28892;55.640;37.532;2023-05-02T08:48:26;99534.63;;;20.79;26.59
43298;BME280;28892;55.640;37.532;2023-05-02T08:54:01;99513.97;;;20.27;23.96
43298;BME280;28892;55.640;37.532;2023-05-02T08:56:31;99517.16;;;20.52;24.85
43298;BME280;28892;55.640;37.532;2023-05-02T08:58:59;99515.47;;;20.80;25.19
43298;BME280;28892;55.640;37.532;2023-05-02T09:01:32;99528.63;;;21.06;22.83
43298;BME280;28892;55.640;37.532;2023-05-02T09:04:06;99507.88;;;20.89;22.89
43298;BME280;28892;55.640;37.532;2023-05-02T09:06:32;99517.38;;;20.51;23.12
43298;BME280;28892;55.640;37.532;2023-05-02T09:09:02;99512.03;;;20.68;23.62
43298;BME280;28892;55.640;37.532;2023-05-02T09:15:37;99514.63;;;21.60;22.80
43298;BME280;28892;55.640;37.532;2023-05-02T09:23:44;99520.53;;;21.74;22.44
43298;BME280;28892;55.640;37.532;2023-05-02T09:49:17;99483.66;;;21.46;22.26
43298;BME280;28892;55.640;37.532;2023-05-02T10:02:25;99472.25;;;21.04;21.76
43298;BME280;28892;55.640;37.532;2023-05-02T10:06:00;99471.91;;;21.35;23.20
43298;BME280;28892;55.640;37.532;2023-05-02T10:08:32;99481.16;;;20.88;21.94
43298;BME280;28892;55.640;37.532;2023-05-02T10:16:12;99463.22;;;21.50;21.82
43298;BME280;28892;55.640;37.532;2023-05-02T10:19:53;99478.22;;;22.25;19.96
43298;BME280;28892;55.640;37.532;2023-05-02T10:22:31;99475.25;;;21.42;20.67
43298;BME280;28892;55.640;37.532;2023-05-02T10:25:08;99460.50;;;20.06;21.90
43298;BME280;28892;55.640;37.532;2023-05-02T10:31:54;99458.00;;;18.62;23.16
43298;BME280;28892;55.640;37.532;2023-05-02T10:34:49;99467.75;;;19.17;22.97
43298;BME280;28892;55.640;37.532;2023-05-02T10:37:47;99473.56;;;19.26;23.22
43298;BME280;28892;55.640;37.532;2023-05-02T10:40:20;99462.34;;;19.53;23.88
43298;BME280;28892;55.640;37.532;2023-05-02T10:42:56;99463.38;;;19.76;21.77
43298;BME280;28892;55.640;37.532;2023-05-02T10:45:51;99459.00;;;18.79;22.75
43298;BME280;28892;55.640;37.532;2023-05-02T10:52:05;99460.16;;;18.41;22.29
43298;BME280;28892;55.640;37.532;2023-05-02T10:54:35;99452.41;;;19.53;22.51
43298;BME280;28892;55.640;37.532;2023-05-02T10:57:28;99444.13;;;20.08;21.58
43298;BME280;28892;55.640;37.532;2023-05-02T11:00:20;99453.63;;;20.10;21.55
43298;BME280;28892;55.640;37.532;2023-05-02T11:02:49;99447.53;;;20.03;21.67
43298;BME280;28892;55.640;37.532;2023-05-02T11:15:04;99422.56;;;18.95;23.99
43298;BME280;28892;55.640;37.532;2023-05-02T11:18:01;99423.50;;;19.61;24.70
43298;BME280;28892;55.640;37.532;2023-05-02T11:30:40;99422.84;;;19.42;21.89
43298;BME280;28892;55.640;37.532;2023-05-02T11:35:43;99429.75;;;19.13;21.59
43298;BME280;28892;55.640;37.532;2023-05-02T11:38:12;99407.16;;;20.03;21.75
43298;BME280;28892;55.640;37.532;2023-05-02T11:45:15;99398.28;;;19.91;21.50
43298;BME280;28892;55.640;37.532;2023-05-02T11:49:07;99410.44;;;19.40;22.29
43298;BME280;28892;55.640;37.532;2023-05-02T11:52:06;99399.75;;;18.74;22.60
43298;BME280;28892;55.640;37.532;2023-05-02T11:54:45;99395.91;;;18.94;23.92
43298;BME280;28892;55.640;37.532;2023-05-02T11:57:40;99405.53;;;19.37;21.94
43298;BME280;28892;55.640;37.532;2023-05-02T12:00:18;99398.84;;;19.52;22.87
43298;BME280;28892;55.640;37.532;2023-05-02T12:03:07;99395.78;;;19.60;23.03
43298;BME280;28892;55.640;37.532;2023-05-02T12:10:34;99382.75;;;20.22;22.62
43298;BME280;28892;55.640;37.532;2023-05-02T12:13:33;99376.47;;;20.04;22.94
43298;BME280;28892;55.640;37.532;2023-05-02T12:16:00;99373.03;;;19.80;22.77
43298;BME280;28892;55.640;37.532;2023-05-02T12:57:01;99359.25;;;17.16;25.53
43298;BME280;28892;55.640;37.532;2023-05-02T13:03:35;99361.03;;;17.03;24.94
43298;BME280;28892;55.640;37.532;2023-05-02T13:06:04;99354.41;;;16.81;26.81
43298;BME280;28892;55.640;37.532;2023-05-02T13:10:07;99359.59;;;17.45;25.77
43298;BME280;28892;55.640;37.532;2023-05-02T13:17:25;99361.59;;;17.31;26.01
43298;BME280;28892;55.640;37.532;2023-05-02T13:54:43;99316.47;;;17.09;25.42
43298;BME280;28892;55.640;37.532;2023-05-02T13:57:22;99312.69;;;16.47;26.40
43298;BME280;28892;55.640;37.532;2023-05-02T14:00:44;99320.91;;;16.71;26.25
43298;BME280;28892;55.640;37.532;2023-05-02T14:03:27;99306.72;;;16.45;25.69
43298;BME280;28892;55.640;37.532;2023-05-02T14:17:05;99310.59;;;15.85;26.53
43298;BME280;28892;55.640;37.532;2023-05-02T14:19:40;99290.41;;;15.96;27.37
43298;BME280;28892;55.640;37.532;2023-05-02T14:22:26;99301.31;;;15.95;26.54
43298;BME280;28892;55.640;37.532;2023-05-02T14:25:04;99281.22;;;15.78;27.34
43298;BME280;28892;55.640;37.532;2023-05-02T14:27:33;99284.63;;;15.99;26.94
43298;BME280;28892;55.640;37.532;2023-05-02T14:30:02;99293.88;;;16.29;26.81
43298;BME280;28892;55.640;37.532;2023-05-02T14:33:01;99274.69;;;16.57;26.02
43298;BME280;28892;55.640;37.532;2023-05-02T14:35:34;99288.69;;;16.59;26.38
43298;BME280;28892;55.640;37.532;2023-05-02T14:38:45;99271.00;;;15.69;27.25
43298;BME280;28892;55.640;37.532;2023-05-02T14:41:11;99283.78;;;16.05;26.77
43298;BME280;28892;55.640;37.532;2023-05-02T14:44:24;99293.28;;;16.27;26.58
43298;BME280;28892;55.640;37.532;2023-05-02T14:55:02;99273.38;;;16.67;27.13
43298;BME280;28892;55.640;37.532;2023-05-02T14:58:43;99273.38;;;16.67;26.64
43298;BME280;28892;55.640;37.532;2023-05-02T15:26:21;99262.69;;;16.16;26.60
43298;BME280;28892;55.640;37.532;2023-05-02T15:28:57;99259.38;;;15.82;27.19
43298;BME280;28892;55.640;37.532;2023-05-02T15:35:51;99279.41;;;15.27;28.44
43298;BME280;28892;55.640;37.532;2023-05-02T15:39:00;99265.50;;;15.11;28.58
43298;BME280;28892;55.640;37.532;2023-05-02T15:41:59;99283.00;;;15.53;28.57
43298;BME280;28892;55.640;37.532;2023-05-02T15:46:06;99256.53;;;15.44;28.06
43298;BME280;28892;55.640;37.532;2023-05-02T15:48:40;99259.84;;;15.33;28.33
43298;BME280;28892;55.640;37.532;2023-05-02T15:54:58;99264.84;;;15.22;28.85
43298;BME280;28892;55.640;37.532;2023-05-02T15:58:00;99251.59;;;14.96;28.96
43298;BME280;28892;55.640;37.532;2023-05-02T16:00:55;99272.53;;;14.78;29.61
43298;BME280;28892;55.640;37.532;2023-05-02T16:04:39;99251.41;;;14.70;29.78
43298;BME280;28892;55.640;37.532;2023-05-02T16:11:44;99252.44;;;14.76;29.64
43298;BME280;28892;55.640;37.532;2023-05-02T16:14:49;99259.59;;;14.96;29.78
43298;BME280;28892;55.640;37.532;2023-05-02T16:35:21;99257.59;;;14.50;30.22
43298;BME280;28892;55.640;37.532;2023-05-02T16:38:54;99232.16;;;14.34;30.30
43298;BME280;28892;55.640;37.532;2023-05-02T19:36:29;99171.44;;;12.58;33.26
43298;BME280;28892;55.640;37.532;2023-05-02T19:42:37;99147.66;;;12.14;34.07
43298;BME280;28892;55.640;37.532;2023-05-02T19:45:44;99146.66;;;11.94;34.11
43298;BME280;28892;55.640;37.532;2023-05-02T19:48:43;99151.41;;;12.27;33.95
43298;BME280;28892;55.640;37.532;2023-05-02T19:51:14;99151.78;;;12.24;33.99
43298;BME280;28892;55.640;37.532;2023-05-02T19:54:09;99143.13;;;12.15;33.96
43298;BME280;28892;55.640;37.532;2023-05-02T19:56:51;99137.06;;;12.21;33.88
43298;BME280;28892;55.640;37.532;2023-05-02T19:59:35;99137.78;;;12.08;34.14
43298;BME280;28892;55.640;37.532;2023-05-02T20:09:06;99131.44;;;12.09;34.22
43298;BME280;28892;55.640;37.532;2023-05-02T20:11:32;99125.78;;;11.97;33.98
43298;BME280;28892;55.640;37.532;2023-05-02T20:14:55;99143.03;;;12.30;33.81
43298;BME280;28892;55.640;37.532;2023-05-02T20:17:26;99133.34;;;12.15;33.93
43298;BME280;28892;55.640;37.532;2023-05-02T20:20:12;99125.94;;;12.11;34.58
43298;BME280;28892;55.640;37.532;2023-05-02T20:22:41;99116.56;;;11.93;34.61
43298;BME280;28892;55.640;37.532;2023-05-02T20:25:42;99128.28;;;11.99;34.68
43298;BME280;28892;55.640;37.532;2023-05-02T20:28:53;99120.69;;;11.96;34.61
43298;BME280;28892;55.640;37.532;2023-05-02T20:31:59;99119.09;;;11.73;34.77
43298;BME280;28892;55.640;37.532;2023-05-02T20:34:34;99123.59;;;11.29;35.77
43298;BME280;28892;55.640;37.532;2023-05-02T20:37:06;99116.13;;;11.39;35.60
43298;BME280;28892;55.640;37.532;2023-05-02T20:39:49;99101.84;;;11.18;36.01
43298;BME280;28892;55.640;37.532;2023-05-02T20:42:45;99115.22;;;11.54;35.46
43298;BME280;28892;55.640;37.532;2023-05-02T20:46:00;99104.00;;;11.80;35.07
43298;BME280;28892;55.640;37.532;2023-05-02T20:49:53;99102.44;;;11.64;35.37
43298;BME280;28892;55.640;37.532;2023-05-02T20:52:22;99092.56;;;11.51;35.29
43298;BME280;28892;55.640;37.532;2023-05-02T20:58:34;99121.31;;;11.69;35.04
43298;BME280;28892;55.640;37.532;2023-05-02T21:01:03;99105.56;;;11.24;35.66
43298;BME280;28892;55.640;37.532;2023-05-02T21:03:52;99101.03;;;11.40;35.64
43298;BME280;28892;55.640;37.532;2023-05-02T21:06:28;99102.09;;;11.45;35.48
43298;BME280;28892;55.640;37.532;2023-05-02T21:09:03;99097.88;;;11.08;36.14
43298;BME280;28892;55.640;37.532;2023-05-02T21:11:40;99095.25;;;10.93;36.18
43298;BME280;28892;55.640;37.532;2023-05-02T21:14:07;99101.19;;;10.95;36.27
43298;BME280;28892;55.640;37.532;2023-05-02T21:16:54;99086.81;;;11.26;35.58
43298;BME280;28892;55.640;37.532;2023-05-02T21:19:21;99098.75;;;11.37;35.47
43298;BME280;28892;55.640;37.532;2023-05-02T21:21:54;99087.94;;;11.16;36.09
43298;BME280;28892;55.640;37.532;2023-05-02T21:24:27;99080.41;;;11.20;35.83
43298;BME280;28892;55.640;37.532;2023-05-02T21:26:53;99091.34;;;11.32;35.88
43298;BME280;28892;55.640;37.532;2023-05-02T21:29:38;99083.88;;;10.99;36.63
43298;BME280;28892;55.640;37.532;2023-05-02T21:35:07;99083.97;;;11.27;36.04
43298;BME280;28892;55.640;37.532;2023-05-02T21:37:33;99087.75;;;11.18;36.33
43298;BME280;28892;55.640;37.532;2023-05-02T21:40:06;99069.34;;;11.16;36.30
43298;BME280;28892;55.640;37.532;2023-05-02T21:42:46;99080.59;;;10.97;36.84
43298;BME280;28892;55.640;37.532;2023-05-02T21:45:23;99054.31;;;10.80;36.94
43298;BME280;28892;55.640;37.532;2023-05-02T21:47:49;99074.25;;;10.98;36.76
43298;BME280;28892;55.640;37.532;2023-05-02T21:50:15;99071.06;;;11.02;36.88
43298;BME280;28892;55.640;37.532;2023-05-02T21:52:44;99072.00;;;10.58;37.78
43298;BME280;28892;55.640;37.532;2023-05-02T21:55:13;99056.75;;;10.82;37.30
43298;BME280;28892;55.640;37.532;2023-05-02T21:57:40;99077.47;;;10.93;37.13
43298;BME280;28892;55.640;37.532;2023-05-02T22:00:25;99075.84;;;11.14;36.94
43298;BME280;28892;55.640;37.532;2023-05-02T22:03:39;99069.28;;;11.10;36.92
43298;BME280;28892;55.640;37.532;2023-05-02T22:07:15;99086.53;;;10.99;37.43
43298;BME280;28892;55.640;37.532;2023-05-02T22:09:44;99063.75;;;10.68;37.76
43298;BME280;28892;55.640;37.532;2023-05-02T22:12:10;99064.19;;;10.71;37.49
43298;BME280;28892;55.640;37.532;2023-05-02T22:14:39;99050.94;;;10.93;36.99
43298;BME280;28892;55.640;37.532;2023-05-02T22:17:08;99059.06;;;11.07;37.16
43298;BME280;28892;55.640;37.532;2023-05-02T22:23:14;99055.50;;;10.78;37.45
43298;BME280;28892;55.640;37.532;2023-05-02T22:25:42;99060.44;;;10.66;37.91
43298;BME280;28892;55.640;37.532;2023-05-02T22:28:19;99052.41;;;10.59;38.26
43298;BME280;28892;55.640;37.532;2023-05-02T22:31:26;99057.09;;;10.42;38.87
43298;BME280;28892;55.640;37.532;2023-05-02T22:34:10;99025.75;;;10.00;39.40
43298;BME280;28892;55.640;37.532;2023-05-02T22:36:44;99029.69;;;9.89;39.44
43298;BME280;28892;55.640;37.532;2023-05-02T22:39:30;99029.69;;;10.19;39.25
43298;BME280;28892;55.640;37.532;2023-05-02T22:41:59;99031.06;;;10.00;39.29
43298;BME280;28892;55.640;37.532;2023-05-02T22:44:50;99029.50;;;10.06;39.43
43298;BME280;28892;55.640;37.532;2023-05-02T22:47:41;99019.56;;;10.08;39.52
43298;BME280;28892;55.640;37.532;2023-05-02T22:53:19;99023.09;;;10.00;39.79
43298;BME280;28892;55.640;37.532;2023-05-02T22:55:46;99032.13;;;9.91;39.72
43298;BME280;28892;55.640;37.532;2023-05-02T22:58:15;99017.63;;;9.72;39.96
43298;BME280;28892;55.640;37.532;2023-05-02T23:00:42;99020.91;;;9.74;40.28